sensor_id;sensor_type;location;lat;lon;timestamp;P1;durP1;ratioP1;P2;durP2;ratioP2
9884;SDS011;4981;50.966;4.842;2022-09-01T08:50:26;4.22;;;1.60;;
9884;SDS011;4981;50.966;4.842;2022-09-01T08:52:55;4.28;;;1.95;;
9884;SDS011;4981;50.966;4.842;2022-09-01T08:55:35;3.85;;;1.27;;
9884;SDS011;4981;50.966;4.842;2022-09-01T08:58:15;4.55;;;1.90;;
9884;SDS011;4981;50.966;4.842;2022-09-01T09:00:44;9.05;;;1.70;;
9884;SDS011;4981;50.966;4.842;2022-09-01T09:03:17;8.52;;;1.73;;
9884;SDS011;4981;50.966;4.842;2022-09-01T09:05:58;15.48;;;1.65;;
9884;SDS011;4981;50.966;4.842;2022-09-01T09:08:42;5.93;;;2.55;;
9884;SDS011;4981;50.966;4.842;2022-09-01T09:11:26;4.15;;;1.60;;
9884;SDS011;4981;50.966;4.842;2022-09-01T09:14:13;8.07;;;1.70;;
9884;SDS011;4981;50.966;4.842;2022-09-01T09:16:51;3.33;;;1.50;;
9884;SDS011;4981;50.966;4.842;2022-09-01T09:19:21;3.08;;;1.40;;
9884;SDS011;4981;50.966;4.842;2022-09-01T09:21:53;4.45;;;1.50;;
9884;SDS011;4981;50.966;4.842;2022-09-01T09:24:24;3.80;;;1.58;;
9884;SDS011;4981;50.966;4.842;2022-09-01T09:26:54;4.55;;;1.38;;
9884;SDS011;4981;50.966;4.842;2022-09-01T09:29:24;3.28;;;1.33;;
9884;SDS011;4981;50.966;4.842;2022-09-01T09:32:03;2.10;;;1.30;;
9884;SDS011;4981;50.966;4.842;2022-09-01T09:34:35;2.25;;;1.30;;
9884;SDS011;4981;50.966;4.842;2022-09-01T09:40:05;2.10;;;1.10;;
9884;SDS011;4981;50.966;4.842;2022-09-01T09:42:35;4.38;;;1.50;;
9884;SDS011;4981;50.966;4.842;2022-09-01T09:45:04;1.60;;;0.90;;
9884;SDS011;4981;50.966;4.842;2022-09-01T09:47:43;2.10;;;1.20;;
9884;SDS011;4981;50.966;4.842;2022-09-01T09:50:22;1.92;;;1.00;;
9884;SDS011;4981;50.966;4.842;2022-09-01T09:52:53;3.53;;;1.42;;
9884;SDS011;4981;50.966;4.842;2022-09-01T09:55:48;1.63;;;1.40;;
9884;SDS011;4981;50.966;4.842;2022-09-01T09:58:34;1.40;;;1.30;;
9884;SDS011;4981;50.966;4.842;2022-09-01T10:01:05;1.30;;;0.95;;
9884;SDS011;4981;50.966;4.842;2022-09-01T10:03:41;2.45;;;1.10;;
9884;SDS011;4981;50.966;4.842;2022-09-01T10:06:10;1.73;;;1.27;;
9884;SDS011;4981;50.966;4.842;2022-09-01T10:08:42;1.60;;;1.10;;
9884;SDS011;4981;50.966;4.842;2022-09-01T10:11:25;3.33;;;1.10;;
9884;SDS011;4981;50.966;4.842;2022-09-01T10:13:55;4.57;;;1.13;;
9884;SDS011;4981;50.966;4.842;2022-09-01T10:16:24;3.38;;;1.20;;
9884;SDS011;4981;50.966;4.842;2022-09-01T10:18:55;2.17;;;1.20;;
9884;SDS011;4981;50.966;4.842;2022-09-01T10:21:29;2.13;;;1.10;;
9884;SDS011;4981;50.966;4.842;2022-09-01T10:24:01;1.00;;;0.90;;
9884;SDS011;4981;50.966;4.842;2022-09-01T10:26:50;1.98;;;1.13;;
9884;SDS011;4981;50.966;4.842;2022-09-01T10:29:21;3.00;;;1.00;;
9884;SDS011;4981;50.966;4.842;2022-09-01T10:31:52;1.65;;;1.55;;
9884;SDS011;4981;50.966;4.842;2022-09-01T10:34:21;3.00;;;1.17;;
9884;SDS011;4981;50.966;4.842;2022-09-01T10:36:49;4.18;;;1.20;;
9884;SDS011;4981;50.966;4.842;2022-09-01T10:39:18;2.97;;;1.27;;
9884;SDS011;4981;50.966;4.842;2022-09-01T10:41:47;2.40;;;0.73;;
9884;SDS011;4981;50.966;4.842;2022-09-01T10:44:22;1.25;;;1.00;;
9884;SDS011;4981;50.966;4.842;2022-09-01T10:46:54;2.85;;;1.00;;
9884;SDS011;4981;50.966;4.842;2022-09-01T10:55:23;2.72;;;1.45;;
9884;SDS011;4981;50.966;4.842;2022-09-01T10:58:00;1.48;;;1.10;;
9884;SDS011;4981;50.966;4.842;2022-09-01T11:00:55;1.75;;;1.23;;
9884;SDS011;4981;50.966;4.842;2022-09-01T11:09:33;1.45;;;1.05;;
9884;SDS011;4981;50.966;4.842;2022-09-01T11:12:07;1.48;;;1.10;;
9884;SDS011;4981;50.966;4.842;2022-09-01T11:14:55;1.00;;;0.90;;
9884;SDS011;4981;50.966;4.842;2022-09-01T11:17:24;2.08;;;1.02;;
9884;SDS011;4981;50.966;4.842;2022-09-01T11:19:55;1.58;;;1.02;;
9884;SDS011;4981;50.966;4.842;2022-09-01T11:22:31;4.95;;;1.20;;
9884;SDS011;4981;50.966;4.842;2022-09-01T11:28:06;3.38;;;1.20;;
9884;SDS011;4981;50.966;4.842;2022-09-01T11:30:50;1.77;;;1.13;;
9884;SDS011;4981;50.966;4.842;2022-09-01T11:33:25;1.17;;;0.98;;
9884;SDS011;4981;50.966;4.842;2022-09-01T11:36:19;1.45;;;1.00;;
9884;SDS011;4981;50.966;4.842;2022-09-01T11:38:51;1.33;;;1.10;;
9884;SDS011;4981;50.966;4.842;2022-09-01T11:41:22;1.10;;;1.00;;
9884;SDS011;4981;50.966;4.842;2022-09-01T11:43:54;1.73;;;1.00;;
9884;SDS011;4981;50.966;4.842;2022-09-01T11:46:25;2.17;;;1.08;;
9884;SDS011;4981;50.966;4.842;2022-09-01T11:48:54;1.42;;;1.20;;
9884;SDS011;4981;50.966;4.842;2022-09-01T11:51:24;2.25;;;1.27;;
9884;SDS011;4981;50.966;4.842;2022-09-01T11:53:51;1.67;;;0.80;;
9884;SDS011;4981;50.966;4.842;2022-09-01T11:56:26;1.95;;;1.30;;
9884;SDS011;4981;50.966;4.842;2022-09-01T11:58:55;1.88;;;1.35;;
9884;SDS011;4981;50.966;4.842;2022-09-01T12:01:30;1.35;;;0.93;;
9884;SDS011;4981;50.966;4.842;2022-09-01T12:06:49;2.58;;;1.20;;
9884;SDS011;4981;50.966;4.842;2022-09-01T12:09:22;2.88;;;1.15;;
9884;SDS011;4981;50.966;4.842;2022-09-01T12:11:58;2.45;;;1.05;;
9884;SDS011;4981;50.966;4.842;2022-09-01T12:14:27;1.63;;;1.00;;
9884;SDS011;4981;50.966;4.842;2022-09-01T12:16:56;1.40;;;0.77;;
9884;SDS011;4981;50.966;4.842;2022-09-01T12:19:26;4.13;;;1.50;;
9884;SDS011;4981;50.966;4.842;2022-09-01T12:21:57;1.95;;;1.20;;
9884;SDS011;4981;50.966;4.842;2022-09-01T12:24:27;2.33;;;1.30;;
9884;SDS011;4981;50.966;4.842;2022-09-01T12:26:59;0.90;;;0.90;;
9884;SDS011;4981;50.966;4.842;2022-09-01T12:29:28;6.10;;;1.40;;
9884;SDS011;4981;50.966;4.842;2022-09-01T12:31:57;1.20;;;1.10;;
9884;SDS011;4981;50.966;4.842;2022-09-01T12:34:26;2.20;;;1.13;;
9884;SDS011;4981;50.966;4.842;2022-09-01T12:37:04;1.63;;;1.15;;
9884;SDS011;4981;50.966;4.842;2022-09-01T12:39:46;2.53;;;1.30;;
9884;SDS011;4981;50.966;4.842;2022-09-01T12:42:22;2.30;;;1.17;;
9884;SDS011;4981;50.966;4.842;2022-09-01T12:44:53;2.50;;;1.40;;
9884;SDS011;4981;50.966;4.842;2022-09-01T12:53:17;1.02;;;0.93;;
9884;SDS011;4981;50.966;4.842;2022-09-01T12:58:48;1.27;;;0.98;;
9884;SDS011;4981;50.966;4.842;2022-09-01T13:01:28;1.50;;;1.00;;
9884;SDS011;4981;50.966;4.842;2022-09-01T13:04:08;2.35;;;1.27;;
9884;SDS011;4981;50.966;4.842;2022-09-01T13:06:50;3.42;;;1.10;;
9884;SDS011;4981;50.966;4.842;2022-09-01T13:09:17;1.38;;;1.20;;
9884;SDS011;4981;50.966;4.842;2022-09-01T13:11:45;1.38;;;1.10;;
9884;SDS011;4981;50.966;4.842;2022-09-01T13:14:13;2.50;;;1.30;;
9884;SDS011;4981;50.966;4.842;2022-09-01T13:16:43;3.22;;;1.20;;
9884;SDS011;4981;50.966;4.842;2022-09-01T13:19:11;1.20;;;1.05;;
9884;SDS011;4981;50.966;4.842;2022-09-01T13:21:38;1.63;;;0.90;;
9884;SDS011;4981;50.966;4.842;2022-09-01T13:24:05;2.45;;;1.20;;
9884;SDS011;4981;50.966;4.842;2022-09-01T13:26:33;2.63;;;1.23;;
9884;SDS011;4981;50.966;4.842;2022-09-01T13:29:01;1.10;;;0.95;;
9884;SDS011;4981;50.966;4.842;2022-09-01T13:31:28;1.10;;;1.00;;
9884;SDS011;4981;50.966;4.842;2022-09-01T13:33:58;2.33;;;1.13;;
9884;SDS011;4981;50.966;4.842;2022-09-01T13:36:25;2.63;;;1.17;;
9884;SDS011;4981;50.966;4.842;2022-09-01T13:38:53;1.10;;;1.00;;
9884;SDS011;4981;50.966;4.842;2022-09-01T13:41:20;2.13;;;0.85;;
9884;SDS011;4981;50.966;4.842;2022-09-01T13:43:47;1.55;;;1.10;;
9884;SDS011;4981;50.966;4.842;2022-09-01T13:46:14;0.82;;;0.80;;
9884;SDS011;4981;50.966;4.842;2022-09-01T13:48:42;1.13;;;1.02;;
9884;SDS011;4981;50.966;4.842;2022-09-01T13:51:11;3.03;;;0.90;;
9884;SDS011;4981;50.966;4.842;2022-09-01T13:53:38;1.98;;;0.90;;
9884;SDS011;4981;50.966;4.842;2022-09-01T13:56:06;0.80;;;0.80;;
9884;SDS011;4981;50.966;4.842;2022-09-01T13:58:33;2.22;;;0.90;;
9884;SDS011;4981;50.966;4.842;2022-09-01T14:01:01;1.92;;;1.02;;
9884;SDS011;4981;50.966;4.842;2022-09-01T14:03:29;1.75;;;1.10;;
9884;SDS011;4981;50.966;4.842;2022-09-01T14:05:56;1.40;;;1.00;;
9884;SDS011;4981;50.966;4.842;2022-09-01T14:08:25;0.77;;;0.73;;
9884;SDS011;4981;50.966;4.842;2022-09-01T14:10:54;1.00;;;0.80;;
9884;SDS011;4981;50.966;4.842;2022-09-01T14:13:22;0.90;;;0.90;;
9884;SDS011;4981;50.966;4.842;2022-09-01T14:15:50;1.40;;;1.30;;
9884;SDS011;4981;50.966;4.842;2022-09-01T14:18:19;2.35;;;0.90;;
9884;SDS011;4981;50.966;4.842;2022-09-01T14:20:47;1.17;;;0.95;;
9884;SDS011;4981;50.966;4.842;2022-09-01T14:23:17;2.05;;;0.90;;
9884;SDS011;4981;50.966;4.842;2022-09-01T14:25:48;0.88;;;0.88;;
9884;SDS011;4981;50.966;4.842;2022-09-01T14:28:16;2.88;;;1.00;;
9884;SDS011;4981;50.966;4.842;2022-09-01T14:30:45;1.02;;;0.90;;
9884;SDS011;4981;50.966;4.842;2022-09-01T14:33:12;1.15;;;0.80;;
9884;SDS011;4981;50.966;4.842;2022-09-01T14:35:41;2.08;;;1.10;;
9884;SDS011;4981;50.966;4.842;2022-09-01T14:38:10;2.65;;;0.98;;
9884;SDS011;4981;50.966;4.842;2022-09-01T14:40:39;1.10;;;1.00;;
9884;SDS011;4981;50.966;4.842;2022-09-01T14:43:09;0.80;;;0.80;;
9884;SDS011;4981;50.966;4.842;2022-09-01T14:45:38;2.33;;;1.00;;
9884;SDS011;4981;50.966;4.842;2022-09-01T14:48:08;1.00;;;0.80;;
9884;SDS011;4981;50.966;4.842;2022-09-01T14:50:38;2.30;;;0.90;;
9884;SDS011;4981;50.966;4.842;2022-09-01T14:53:07;2.70;;;1.17;;
9884;SDS011;4981;50.966;4.842;2022-09-01T14:55:35;1.27;;;1.00;;
9884;SDS011;4981;50.966;4.842;2022-09-01T14:58:02;1.00;;;0.90;;
9884;SDS011;4981;50.966;4.842;2022-09-01T15:00:31;2.88;;;1.10;;
9884;SDS011;4981;50.966;4.842;2022-09-01T15:03:01;1.45;;;1.00;;
9884;SDS011;4981;50.966;4.842;2022-09-01T15:05:29;0.90;;;0.80;;
9884;SDS011;4981;50.966;4.842;2022-09-01T15:07:56;1.05;;;0.70;;
9884;SDS011;4981;50.966;4.842;2022-09-01T15:10:24;3.75;;;1.10;;
9884;SDS011;4981;50.966;4.842;2022-09-01T15:12:53;3.95;;;1.10;;
9884;SDS011;4981;50.966;4.842;2022-09-01T15:15:22;3.47;;;1.10;;
9884;SDS011;4981;50.966;4.842;2022-09-01T15:17:52;3.55;;;1.02;;
9884;SDS011;4981;50.966;4.842;2022-09-01T15:20:20;1.15;;;0.90;;
9884;SDS011;4981;50.966;4.842;2022-09-01T15:23:06;1.73;;;0.88;;
9884;SDS011;4981;50.966;4.842;2022-09-01T15:25:34;3.50;;;0.75;;
9884;SDS011;4981;50.966;4.842;2022-09-01T15:28:01;2.05;;;0.95;;
9884;SDS011;4981;50.966;4.842;2022-09-01T15:30:28;1.33;;;0.98;;
9884;SDS011;4981;50.966;4.842;2022-09-01T15:32:57;4.20;;;1.00;;
9884;SDS011;4981;50.966;4.842;2022-09-01T15:35:25;3.78;;;1.00;;
9884;SDS011;4981;50.966;4.842;2022-09-01T15:37:54;0.90;;;0.90;;
9884;SDS011;4981;50.966;4.842;2022-09-01T15:40:22;3.50;;;1.33;;
9884;SDS011;4981;50.966;4.842;2022-09-01T15:42:50;1.15;;;0.80;;
9884;SDS011;4981;50.966;4.842;2022-09-01T15:45:19;1.10;;;0.90;;
9884;SDS011;4981;50.966;4.842;2022-09-01T15:47:48;7.78;;;1.20;;
9884;SDS011;4981;50.966;4.842;2022-09-01T15:50:17;1.10;;;1.00;;
9884;SDS011;4981;50.966;4.842;2022-09-01T15:52:47;6.28;;;1.45;;
9884;SDS011;4981;50.966;4.842;2022-09-01T15:55:18;1.25;;;0.90;;
9884;SDS011;4981;50.966;4.842;2022-09-01T15:57:47;4.00;;;0.80;;
9884;SDS011;4981;50.966;4.842;2022-09-01T16:00:15;2.00;;;0.80;;
9884;SDS011;4981;50.966;4.842;2022-09-01T16:02:44;0.90;;;0.90;;
9884;SDS011;4981;50.966;4.842;2022-09-01T16:05:11;2.92;;;1.20;;
9884;SDS011;4981;50.966;4.842;2022-09-01T16:07:40;1.85;;;1.10;;
9884;SDS011;4981;50.966;4.842;2022-09-01T16:10:08;2.08;;;0.80;;
9884;SDS011;4981;50.966;4.842;2022-09-01T16:12:37;10.07;;;1.10;;
9884;SDS011;4981;50.966;4.842;2022-09-01T16:15:08;3.08;;;0.95;;
9884;SDS011;4981;50.966;4.842;2022-09-01T16:17:43;1.70;;;1.00;;
9884;SDS011;4981;50.966;4.842;2022-09-01T16:20:19;1.67;;;0.90;;
9884;SDS011;4981;50.966;4.842;2022-09-01T16:22:53;1.42;;;0.82;;
9884;SDS011;4981;50.966;4.842;2022-09-01T16:25:26;2.78;;;0.90;;
9884;SDS011;4981;50.966;4.842;2022-09-01T16:27:55;0.70;;;0.70;;
9884;SDS011;4981;50.966;4.842;2022-09-01T16:30:27;1.67;;;0.90;;
9884;SDS011;4981;50.966;4.842;2022-09-01T16:32:56;3.75;;;1.10;;
9884;SDS011;4981;50.966;4.842;2022-09-01T16:35:25;1.10;;;0.80;;
9884;SDS011;4981;50.966;4.842;2022-09-01T16:38:06;1.20;;;0.95;;
9884;SDS011;4981;50.966;4.842;2022-09-01T16:40:40;1.00;;;0.80;;
9884;SDS011;4981;50.966;4.842;2022-09-01T16:43:14;0.70;;;0.70;;
9884;SDS011;4981;50.966;4.842;2022-09-01T16:45:52;3.92;;;1.45;;
9884;SDS011;4981;50.966;4.842;2022-09-01T16:48:26;1.35;;;1.00;;
9884;SDS011;4981;50.966;4.842;2022-09-01T16:51:00;0.93;;;0.68;;
9884;SDS011;4981;50.966;4.842;2022-09-01T16:53:41;5.28;;;1.20;;
9884;SDS011;4981;50.966;4.842;2022-09-01T16:56:28;4.80;;;1.00;;
9884;SDS011;4981;50.966;4.842;2022-09-01T16:59:00;0.80;;;0.80;;
9884;SDS011;4981;50.966;4.842;2022-09-01T17:01:39;3.08;;;1.33;;
9884;SDS011;4981;50.966;4.842;2022-09-01T17:04:21;1.48;;;0.80;;
9884;SDS011;4981;50.966;4.842;2022-09-01T17:06:58;7.88;;;1.35;;
9884;SDS011;4981;50.966;4.842;2022-09-01T17:09:34;0.80;;;0.80;;
9884;SDS011;4981;50.966;4.842;2022-09-01T17:12:19;0.85;;;0.70;;
9884;SDS011;4981;50.966;4.842;2022-09-01T17:14:54;0.90;;;0.80;;
9884;SDS011;4981;50.966;4.842;2022-09-01T17:17:25;0.90;;;0.80;;
9884;SDS011;4981;50.966;4.842;2022-09-01T17:20:02;0.80;;;0.65;;
9884;SDS011;4981;50.966;4.842;2022-09-01T17:22:31;2.38;;;0.98;;
9884;SDS011;4981;50.966;4.842;2022-09-01T17:25:02;1.27;;;0.93;;
9884;SDS011;4981;50.966;4.842;2022-09-01T17:27:34;1.55;;;0.93;;
9884;SDS011;4981;50.966;4.842;2022-09-01T17:30:06;5.13;;;1.15;;
9884;SDS011;4981;50.966;4.842;2022-09-01T17:32:43;3.78;;;1.20;;
9884;SDS011;4981;50.966;4.842;2022-09-01T17:35:22;3.85;;;1.33;;
9884;SDS011;4981;50.966;4.842;2022-09-01T17:37:59;3.90;;;1.25;;
9884;SDS011;4981;50.966;4.842;2022-09-01T17:40:40;4.82;;;1.25;;
9884;SDS011;4981;50.966;4.842;2022-09-01T17:43:26;3.95;;;1.35;;
9884;SDS011;4981;50.966;4.842;2022-09-01T17:46:02;5.63;;;1.30;;
9884;SDS011;4981;50.966;4.842;2022-09-01T17:48:44;2.63;;;0.95;;
9884;SDS011;4981;50.966;4.842;2022-09-01T17:51:18;1.58;;;1.27;;
9884;SDS011;4981;50.966;4.842;2022-09-01T17:53:56;2.45;;;1.25;;
9884;SDS011;4981;50.966;4.842;2022-09-01T17:56:36;1.77;;;1.10;;
9884;SDS011;4981;50.966;4.842;2022-09-01T17:59:12;2.05;;;1.20;;
9884;SDS011;4981;50.966;4.842;2022-09-01T18:01:47;4.55;;;1.33;;
9884;SDS011;4981;50.966;4.842;2022-09-01T18:04:45;2.70;;;1.30;;
9884;SDS011;4981;50.966;4.842;2022-09-01T18:07:22;3.55;;;1.27;;
9884;SDS011;4981;50.966;4.842;2022-09-01T18:10:02;3.22;;;1.08;;
9884;SDS011;4981;50.966;4.842;2022-09-01T18:12:34;1.75;;;1.17;;
9884;SDS011;4981;50.966;4.842;2022-09-01T18:15:05;4.25;;;1.10;;
9884;SDS011;4981;50.966;4.842;2022-09-01T18:17:36;5.13;;;1.60;;
9884;SDS011;4981;50.966;4.842;2022-09-01T18:20:07;4.20;;;1.50;;
9884;SDS011;4981;50.966;4.842;2022-09-01T18:22:40;9.07;;;1.10;;
9884;SDS011;4981;50.966;4.842;2022-09-01T18:25:14;3.88;;;1.38;;
9884;SDS011;4981;50.966;4.842;2022-09-01T18:27:46;3.03;;;1.40;;
9884;SDS011;4981;50.966;4.842;2022-09-01T18:30:14;1.92;;;0.98;;
9884;SDS011;4981;50.966;4.842;2022-09-01T18:32:45;6.18;;;1.25;;
9884;SDS011;4981;50.966;4.842;2022-09-01T18:35:22;3.22;;;1.40;;
9884;SDS011;4981;50.966;4.842;2022-09-01T18:38:03;7.57;;;1.70;;
9884;SDS011;4981;50.966;4.842;2022-09-01T18:40:46;2.90;;;1.23;;
9884;SDS011;4981;50.966;4.842;2022-09-01T18:43:28;3.45;;;1.40;;
9884;SDS011;4981;50.966;4.842;2022-09-01T18:46:06;6.10;;;1.30;;
9884;SDS011;4981;50.966;4.842;2022-09-01T18:48:48;3.10;;;1.48;;
9884;SDS011;4981;50.966;4.842;2022-09-01T18:51:28;3.95;;;1.50;;
9884;SDS011;4981;50.966;4.842;2022-09-01T18:54:13;2.80;;;1.40;;
9884;SDS011;4981;50.966;4.842;2022-09-01T18:56:46;5.88;;;1.27;;
9884;SDS011;4981;50.966;4.842;2022-09-01T18:59:27;4.70;;;1.38;;
9884;SDS011;4981;50.966;4.842;2022-09-01T19:02:11;3.85;;;1.50;;
9884;SDS011;4981;50.966;4.842;2022-09-01T19:04:49;1.63;;;1.33;;
9884;SDS011;4981;50.966;4.842;2022-09-01T19:07:26;3.70;;;1.60;;
9884;SDS011;4981;50.966;4.842;2022-09-01T19:10:00;4.13;;;1.40;;
9884;SDS011;4981;50.966;4.842;2022-09-01T19:12:34;4.82;;;1.50;;
9884;SDS011;4981;50.966;4.842;2022-09-01T19:15:12;5.32;;;1.40;;
9884;SDS011;4981;50.966;4.842;2022-09-01T19:17:51;5.57;;;1.60;;
9884;SDS011;4981;50.966;4.842;2022-09-01T19:20:38;2.88;;;1.50;;
9884;SDS011;4981;50.966;4.842;2022-09-01T19:23:11;2.53;;;1.40;;
9884;SDS011;4981;50.966;4.842;2022-09-01T19:25:44;4.95;;;1.40;;
9884;SDS011;4981;50.966;4.842;2022-09-01T19:28:14;3.95;;;1.38;;
9884;SDS011;4981;50.966;4.842;2022-09-01T19:30:47;4.82;;;1.23;;
9884;SDS011;4981;50.966;4.842;2022-09-01T19:33:18;4.65;;;1.33;;
9884;SDS011;4981;50.966;4.842;2022-09-01T19:35:50;3.08;;;1.30;;
9884;SDS011;4981;50.966;4.842;2022-09-01T19:38:22;5.43;;;1.50;;
9884;SDS011;4981;50.966;4.842;2022-09-01T19:40:55;2.53;;;1.58;;
9884;SDS011;4981;50.966;4.842;2022-09-01T19:43:26;1.75;;;1.50;;
9884;SDS011;4981;50.966;4.842;2022-09-01T19:46:03;2.45;;;1.30;;
9884;SDS011;4981;50.966;4.842;2022-09-01T19:48:42;6.28;;;1.52;;
9884;SDS011;4981;50.966;4.842;2022-09-01T19:51:16;2.75;;;1.40;;
9884;SDS011;4981;50.966;4.842;2022-09-01T19:53:48;7.70;;;2.60;;
9884;SDS011;4981;50.966;4.842;2022-09-01T19:56:22;7.30;;;1.98;;
9884;SDS011;4981;50.966;4.842;2022-09-01T19:58:56;2.08;;;1.45;;
9884;SDS011;4981;50.966;4.842;2022-09-01T20:01:34;3.70;;;1.63;;
9884;SDS011;4981;50.966;4.842;2022-09-01T20:04:11;2.20;;;1.70;;
9884;SDS011;4981;50.966;4.842;2022-09-01T20:06:47;3.53;;;1.50;;
9884;SDS011;4981;50.966;4.842;2022-09-01T20:09:21;3.45;;;1.42;;
9884;SDS011;4981;50.966;4.842;2022-09-01T20:11:52;5.55;;;1.70;;
9884;SDS011;4981;50.966;4.842;2022-09-01T20:17:21;4.95;;;1.17;;
9884;SDS011;4981;50.966;4.842;2022-09-01T20:19:54;3.30;;;1.75;;
9884;SDS011;4981;50.966;4.842;2022-09-01T20:22:27;3.25;;;1.67;;
9884;SDS011;4981;50.966;4.842;2022-09-01T20:25:04;2.83;;;1.50;;
9884;SDS011;4981;50.966;4.842;2022-09-01T20:27:35;2.28;;;1.70;;
9884;SDS011;4981;50.966;4.842;2022-09-01T20:30:13;2.95;;;1.60;;
9884;SDS011;4981;50.966;4.842;2022-09-01T20:32:46;5.00;;;1.70;;
9884;SDS011;4981;50.966;4.842;2022-09-01T20:35:21;4.82;;;1.85;;
9884;SDS011;4981;50.966;4.842;2022-09-01T20:37:54;5.43;;;1.70;;
9884;SDS011;4981;50.966;4.842;2022-09-01T20:40:25;6.32;;;2.20;;
9884;SDS011;4981;50.966;4.842;2022-09-01T20:43:01;5.47;;;1.70;;
9884;SDS011;4981;50.966;4.842;2022-09-01T20:45:42;9.20;;;2.08;;
9884;SDS011;4981;50.966;4.842;2022-09-01T20:48:14;4.35;;;1.60;;
9884;SDS011;4981;50.966;4.842;2022-09-01T20:50:44;2.70;;;1.73;;
9884;SDS011;4981;50.966;4.842;2022-09-01T20:53:20;4.88;;;1.67;;
9884;SDS011;4981;50.966;4.842;2022-09-01T20:55:57;5.65;;;2.05;;
9884;SDS011;4981;50.966;4.842;2022-09-01T20:58:33;9.25;;;2.28;;
9884;SDS011;4981;50.966;4.842;2022-09-01T21:01:12;3.88;;;1.63;;
9884;SDS011;4981;50.966;4.842;2022-09-01T21:03:48;5.20;;;1.95;;
9884;SDS011;4981;50.966;4.842;2022-09-01T21:06:27;5.60;;;1.90;;
9884;SDS011;4981;50.966;4.842;2022-09-01T21:09:06;6.22;;;1.60;;
9884;SDS011;4981;50.966;4.842;2022-09-01T21:11:39;5.13;;;1.88;;
9884;SDS011;4981;50.966;4.842;2022-09-01T21:14:27;6.80;;;2.40;;
9884;SDS011;4981;50.966;4.842;2022-09-01T21:17:12;4.85;;;1.65;;
9884;SDS011;4981;50.966;4.842;2022-09-01T21:19:51;8.50;;;2.17;;
9884;SDS011;4981;50.966;4.842;2022-09-01T21:22:25;6.60;;;2.03;;
9884;SDS011;4981;50.966;4.842;2022-09-01T21:24:53;4.82;;;1.95;;
9884;SDS011;4981;50.966;4.842;2022-09-01T21:27:22;5.75;;;1.77;;
9884;SDS011;4981;50.966;4.842;2022-09-01T21:29:53;5.60;;;1.75;;
9884;SDS011;4981;50.966;4.842;2022-09-01T21:32:24;7.43;;;1.75;;
9884;SDS011;4981;50.966;4.842;2022-09-01T21:34:55;2.83;;;1.42;;
9884;SDS011;4981;50.966;4.842;2022-09-01T21:37:23;7.18;;;2.20;;
9884;SDS011;4981;50.966;4.842;2022-09-01T21:39:52;5.05;;;1.83;;
9884;SDS011;4981;50.966;4.842;2022-09-01T21:42:22;9.23;;;2.35;;
9884;SDS011;4981;50.966;4.842;2022-09-01T21:44:51;4.50;;;1.75;;
9884;SDS011;4981;50.966;4.842;2022-09-01T21:47:19;3.80;;;1.63;;
9884;SDS011;4981;50.966;4.842;2022-09-01T21:49:47;2.22;;;1.20;;
9884;SDS011;4981;50.966;4.842;2022-09-01T21:52:16;7.32;;;1.77;;
9884;SDS011;4981;50.966;4.842;2022-09-01T21:54:43;6.45;;;2.17;;
9884;SDS011;4981;50.966;4.842;2022-09-01T21:57:11;5.05;;;1.90;;
9884;SDS011;4981;50.966;4.842;2022-09-01T21:59:38;4.85;;;1.50;;
9884;SDS011;4981;50.966;4.842;2022-09-01T22:02:06;5.82;;;1.55;;
9884;SDS011;4981;50.966;4.842;2022-09-01T22:04:33;2.72;;;1.30;;
9884;SDS011;4981;50.966;4.842;2022-09-01T22:07:01;2.35;;;1.23;;
9884;SDS011;4981;50.966;4.842;2022-09-01T22:09:31;4.30;;;1.60;;
9884;SDS011;4981;50.966;4.842;2022-09-01T22:11:58;2.63;;;1.60;;
9884;SDS011;4981;50.966;4.842;2022-09-01T22:14:26;4.13;;;1.98;;
9884;SDS011;4981;50.966;4.842;2022-09-01T22:16:53;4.40;;;1.80;;
9884;SDS011;4981;50.966;4.842;2022-09-01T22:19:20;9.43;;;2.00;;
9884;SDS011;4981;50.966;4.842;2022-09-01T22:21:48;3.95;;;1.77;;
9884;SDS011;4981;50.966;4.842;2022-09-01T22:24:15;6.70;;;2.10;;
9884;SDS011;4981;50.966;4.842;2022-09-01T22:26:44;1.65;;;1.30;;
9884;SDS011;4981;50.966;4.842;2022-09-01T22:29:14;3.83;;;1.50;;
9884;SDS011;4981;50.966;4.842;2022-09-01T22:31:42;1.38;;;1.27;;
9884;SDS011;4981;50.966;4.842;2022-09-01T22:34:10;5.43;;;1.42;;
9884;SDS011;4981;50.966;4.842;2022-09-01T22:36:38;3.60;;;1.33;;
9884;SDS011;4981;50.966;4.842;2022-09-01T22:39:08;1.70;;;1.08;;
9884;SDS011;4981;50.966;4.842;2022-09-01T22:41:37;4.03;;;1.63;;
9884;SDS011;4981;50.966;4.842;2022-09-01T22:44:06;2.45;;;1.50;;
9884;SDS011;4981;50.966;4.842;2022-09-01T22:46:34;4.55;;;1.80;;
9884;SDS011;4981;50.966;4.842;2022-09-01T22:49:03;2.80;;;1.30;;
9884;SDS011;4981;50.966;4.842;2022-09-01T22:51:32;2.22;;;1.42;;
9884;SDS011;4981;50.966;4.842;2022-09-01T22:54:00;1.95;;;1.10;;
9884;SDS011;4981;50.966;4.842;2022-09-01T22:56:28;4.72;;;1.52;;
9884;SDS011;4981;50.966;4.842;2022-09-01T22:58:57;3.60;;;1.42;;
9884;SDS011;4981;50.966;4.842;2022-09-01T23:01:29;3.50;;;1.30;;
9884;SDS011;4981;50.966;4.842;2022-09-01T23:03:58;3.58;;;1.10;;
9884;SDS011;4981;50.966;4.842;2022-09-01T23:06:29;5.85;;;1.52;;
9884;SDS011;4981;50.966;4.842;2022-09-01T23:08:59;3.47;;;1.10;;
9884;SDS011;4981;50.966;4.842;2022-09-01T23:11:27;5.40;;;1.45;;
9884;SDS011;4981;50.966;4.842;2022-09-01T23:13:55;5.22;;;1.23;;
9884;SDS011;4981;50.966;4.842;2022-09-01T23:16:23;3.60;;;1.00;;
9884;SDS011;4981;50.966;4.842;2022-09-01T23:18:52;3.70;;;1.30;;
9884;SDS011;4981;50.966;4.842;2022-09-01T23:21:21;2.55;;;1.00;;
9884;SDS011;4981;50.966;4.842;2022-09-01T23:23:50;4.05;;;1.55;;
9884;SDS011;4981;50.966;4.842;2022-09-01T23:26:18;3.65;;;1.25;;
9884;SDS011;4981;50.966;4.842;2022-09-01T23:28:45;3.83;;;1.20;;
9884;SDS011;4981;50.966;4.842;2022-09-01T23:31:14;3.83;;;1.35;;
9884;SDS011;4981;50.966;4.842;2022-09-01T23:33:43;4.07;;;1.60;;
9884;SDS011;4981;50.966;4.842;2022-09-01T23:36:13;4.82;;;1.58;;
9884;SDS011;4981;50.966;4.842;2022-09-01T23:38:42;3.30;;;1.35;;
9884;SDS011;4981;50.966;4.842;2022-09-01T23:41:11;3.50;;;1.00;;
9884;SDS011;4981;50.966;4.842;2022-09-01T23:43:40;3.85;;;1.35;;
9884;SDS011;4981;50.966;4.842;2022-09-01T23:46:14;3.95;;;1.40;;
9884;SDS011;4981;50.966;4.842;2022-09-01T23:48:43;4.05;;;1.17;;
9884;SDS011;4981;50.966;4.842;2022-09-01T23:51:10;1.48;;;0.90;;
9884;SDS011;4981;50.966;4.842;2022-09-01T23:53:39;1.65;;;1.33;;
9884;SDS011;4981;50.966;4.842;2022-09-01T23:56:08;1.67;;;1.17;;
9884;SDS011;4981;50.966;4.842;2022-09-01T23:58:39;1.67;;;1.20;;
